Brisben, New York
Current Conditions -  °F | °C
As of 1:53 AM on Saturday 01 Nov 2014 (Local Time) from KBGM Reporting Station
Overcast Overcast  
Wind Chill:   Ceiling: 5500
Heat Index:   Visibility: 10mi
Dew Point:   Wind: 6mph
Humidity: 70%   Direction: 50°NE
Pressure: 29.88"   Gusts: NA
Location:  42.4446°N, 75.6311°W
Report Text: KBGM 010553Z AUTO 05005KT 10SM OVC055 05/00 A2988 RMK AO2 SLP127 T00500000 10067 20050 57005
Loading
Personal Weather Stations






























Interactive Weather Map
Tropical Storm Tracking
New forecast layout! Learn more

10-Day Weather Forecast

Advertisements
Track Severe Weather on mobile